Hlavní strana
METAR-TAF:

METAR-TAF

Letiště :

Letiště Bratislava

Bratislava, Slovensko

zeměpisná šířka: 48-12N, zeměpisná délka: 017-12E, výška: 133 m

Aktuální stav počasí

Zpráva byla vytvořena před 29 minutami, v 10:30 UTC
Jihozápadní vítr 3 kt, proměnlivý mezi jihojihovýchodním a severozápadním
Teplota 30°C
Vlhkost vzduchu 38%
Tlak 1017 hPa
Viditelnost 10 km a více
Žádná oblačnost pod 1500 m, nevyskytují se cumulonimby.

METAR: LZIB 201030Z 23003KT 150V320 CAVOK 30/14 Q1017 NOSIG

Čas: 12:59 (10:59 UTC)

Předpověď počasí

Zpráva byla vytvořena před 5 hodinami a 59 minutami, v 05:00 UTC
Předpověď platná od 20 v 06 UTC do 21 v 06 UTC
vítr z různých směrů 2 kt
Viditelnost 10 km a více
Žádná oblačnost pod 1500 m, nevyskytují se cumulonimby.
Dočasný
od 20 v 12 UTC do 20 v 18 UTC
Jihojihovýchodní vítr 6 kt
Změna
od 20 v 20 UTC do 20 v 22 UTC
Západoseverozápadní vítr 6 kt

TAF: LZIB 200500Z 2006/2106 VRB02KT CAVOK TEMPO 2012/2018 16006KT BECMG 2020/2022 29006KT

Stav a předpovědi počasí z více než 4 000 letišť (zprávy METAR a TAF).

Červené a žluté tečky na mapě představují dostupné meteorologické stanice.

Když kurzor umístíte na tečku, zobrazí se název stanice.

Pak kliknutím zobrazíte stav a předpověď počasí.

Chcete-li změnit mapu, kliknutím na zelené tlačítko se znaménkem +mapu přiblížíte, kliknutím na zelené tlačítko se znaménkem – mapu oddálíte a kliknutím na zelené šipky přejdete na sousední mapy.


METAR-TAF: